Time;durP1;ratioP1;P1;durP2;ratioP2;P2;SDS_P1;SDS_P2;PMS_P1;PMS_P2;Temp;Humidity;BMP_temperature;BMP_pressure;BME280_temperature;BME280_humidity;BME280_pressure;Samples;Min_cycle;Max_cycle;Signal;HPM_P1;HPM_P2
2023/06/22 00:01:40;;;;;;;38.97;26.75;;;18.80;99.90;;;;;;6278652;22;20019;-89
2023/06/22 00:04:13;;;;;;;38.15;27.60;;;18.10;99.90;;;;;;6284032;22;20015;-89
2023/06/22 00:06:47;;;;;;;40.05;28.05;;;18.10;99.90;;;;;;6306620;22;20046;-88
2023/06/22 00:09:16;;;;;;;40.55;29.08;;;18.20;99.90;;;;;;6307074;22;20502;-89
2023/06/22 00:11:48;;;;;;;38.88;28.83;;;18.10;99.90;;;;;;6280410;22;20011;-89
2023/06/22 00:14:22;;;;;;;39.67;28.77;;;18.10;99.90;;;;;;6309923;22;20011;-89
2023/06/22 00:16:55;;;;;;;40.00;29.23;;;18.00;99.90;;;;;;6308891;22;20019;-89
2023/06/22 00:19:42;;;;;;;38.08;28.65;;;18.00;99.90;;;;;;6324936;22;20019;-89
2023/06/22 00:22:14;;;;;;;41.17;29.08;;;18.50;99.90;;;;;;6283137;22;20010;-88
2023/06/22 00:24:46;;;;;;;40.92;29.95;;;17.90;99.90;;;;;;6281599;22;20018;-89
2023/06/22 00:27:30;;;;;;;41.67;30.20;;;17.90;99.90;;;;;;6279883;22;20500;-89
2023/06/22 00:30:02;;;;;;;;;;;17.90;99.90;;;;;;6279423;22;20469;-88
2023/06/22 00:33:33;;;;;;;41.67;30.05;;;17.90;99.90;;;;;;6305105;22;19915;-89
2023/06/22 00:36:24;;;;;;;42.47;30.70;;;17.50;99.90;;;;;;6306428;22;20064;-88
2023/06/22 00:38:50;;;;;;;38.65;29.38;;;17.20;99.90;;;;;;6306244;22;20129;-89
2023/06/22 00:41:19;;;;;;;39.35;28.80;;;18.00;99.90;;;;;;6279792;22;20057;-88
2023/06/22 00:50:46;;;;;;;42.65;31.25;;;17.80;99.90;;;;;;6306811;22;20019;-89
2023/06/22 00:53:13;;;;;;;42.05;31.90;;;18.30;99.90;;;;;;6278800;22;20018;-88
2023/06/22 00:55:51;;;;;;;41.17;30.38;;;18.10;99.90;;;;;;6309970;22;20026;-88
2023/06/22 00:58:21;;;;;;;42.10;32.42;;;18.20;99.90;;;;;;6316288;22;20431;-88
2023/06/22 01:04:56;;;;;;;41.30;31.02;;;17.60;99.90;;;;;;6306720;22;20018;-89
2023/06/22 01:19:08;;;;;;;46.33;32.88;;;17.00;99.90;;;;;;6306003;22;20054;-89
2023/06/22 01:21:34;;;;;;;45.03;31.42;;;17.50;99.90;;;;;;6279436;22;20023;-90
2023/06/22 01:24:23;;;;;;;49.92;33.65;;;17.10;99.90;;;;;;6279630;22;20012;-89
2023/06/22 01:27:36;;;;;;;44.65;32.45;;;17.40;99.90;;;;;;6305847;22;20026;-89
2023/06/22 01:30:05;;;;;;;48.25;34.10;;;17.40;99.90;;;;;;6304885;22;20019;-89
2023/06/22 01:32:34;;;;;;;49.47;36.03;;;17.40;99.90;;;;;;6305981;22;20011;-89
2023/06/22 01:35:02;;;;;;;46.45;34.03;;;17.30;99.90;;;;;;6295771;22;20492;-88
2023/06/22 01:37:38;;;;;;;47.05;34.38;;;17.30;99.90;;;;;;6307714;22;20035;-88
2023/06/22 01:40:17;;;;;;;48.15;34.15;;;17.30;99.90;;;;;;6278396;22;20019;-88
2023/06/22 01:42:52;;;;;;;48.42;36.03;;;17.30;99.90;;;;;;6281275;22;20065;-88
2023/06/22 01:45:19;;;;;;;50.03;36.65;;;17.30;99.90;;;;;;6308107;22;20019;-89
2023/06/22 01:47:48;;;;;;;52.83;36.97;;;17.30;99.90;;;;;;6309006;22;20018;-89
2023/06/22 01:50:21;;;;;;;49.83;35.35;;;17.30;99.90;;;;;;6315007;22;20043;-89
2023/06/22 01:52:49;;;;;;;52.60;36.83;;;17.20;99.90;;;;;;6309312;22;20015;-89
2023/06/22 01:55:21;;;;;;;53.67;37.45;;;17.30;99.90;;;;;;6281575;22;20447;-88
2023/06/22 01:57:59;;;;;;;52.92;37.22;;;17.20;99.90;;;;;;6313168;22;20008;-89
2023/06/22 02:00:48;;;;;;;52.92;37.42;;;17.20;99.90;;;;;;6308652;22;20458;-89
2023/06/22 02:03:22;;;;;;;53.03;36.78;;;17.20;99.90;;;;;;6281362;22;20007;-88
2023/06/22 02:06:27;;;;;;;53.60;37.03;;;17.20;99.90;;;;;;6281335;22;20031;-89
2023/06/22 02:09:15;;;;;;;53.90;37.00;;;17.10;99.90;;;;;;6310489;22;20008;-89
2023/06/22 02:11:44;;;;;;;52.78;37.60;;;17.10;99.90;;;;;;6324754;22;20015;-88
2023/06/22 02:14:14;;;;;;;47.42;34.85;;;17.30;99.90;;;;;;6284349;22;20011;-88
2023/06/22 02:16:43;;;;;;;53.55;37.08;;;17.00;99.90;;;;;;6281228;22;20393;-89
2023/06/22 02:19:09;;;;;;;49.40;36.75;;;16.90;99.90;;;;;;6281052;22;20019;-89
2023/06/22 02:21:47;;;;;;;48.67;36.40;;;16.90;99.90;;;;;;6280465;22;20019;-88
2023/06/22 02:24:13;;;;;;;48.83;36.40;;;16.90;99.90;;;;;;6306605;22;20011;-89
2023/06/22 02:26:42;;;;;;;47.83;36.58;;;16.80;99.90;;;;;;6280966;22;20106;-89
2023/06/22 02:44:10;;;;;;;55.90;39.60;;;16.60;99.90;;;;;;6305183;22;20023;-90
2023/06/22 02:46:38;;;;;;;58.25;38.97;;;16.70;99.90;;;;;;6279997;22;20026;-89
2023/06/22 03:00:30;;;;;;;55.65;40.05;;;16.60;99.90;;;;;;6183094;23;20075;-89
2023/06/22 03:03:11;;;;;;;58.95;39.90;;;16.60;99.90;;;;;;6157522;23;20076;-89
2023/06/22 03:05:37;;;;;;;59.67;40.15;;;16.60;99.90;;;;;;6157823;23;20053;-90
2023/06/22 03:08:18;;;;;;;56.97;39.60;;;16.50;99.90;;;;;;6183425;23;20028;-89
2023/06/22 03:10:50;;;;;;;57.47;39.53;;;16.50;99.90;;;;;;6231991;22;20098;-89
2023/06/22 03:13:31;;;;;;;59.58;41.33;;;16.50;99.90;;;;;;6308227;22;20026;-89
2023/06/22 03:15:56;;;;;;;58.40;41.20;;;16.40;99.90;;;;;;6284587;22;20043;-88
2023/06/22 03:18:42;;;;;;;57.83;40.75;;;16.40;99.90;;;;;;6282332;22;20043;-89
2023/06/22 03:21:29;;;;;;;62.67;42.60;;;16.40;99.90;;;;;;6280272;22;20015;-89
2023/06/22 03:23:55;;;;;;;68.20;44.28;;;16.40;99.90;;;;;;6283877;22;20011;-88
2023/06/22 03:29:42;;;;;;;78.55;47.03;;;16.40;99.90;;;;;;6306989;22;20023;-89
2023/06/22 03:32:08;;;;;;;67.03;45.42;;;16.40;99.90;;;;;;6309580;22;20186;-89
2023/06/22 03:34:46;;;;;;;67.63;44.75;;;16.40;99.90;;;;;;6308060;22;20043;-89
2023/06/22 03:37:14;;;;;;;64.40;44.35;;;16.50;99.90;;;;;;6308481;22;20022;-89
2023/06/22 03:39:41;;;;;;;70.70;46.25;;;16.40;99.90;;;;;;6277111;22;20023;-89
2023/06/22 03:42:10;;;;;;;65.82;45.70;;;16.50;99.90;;;;;;6280238;22;20019;-89
2023/06/22 03:45:01;;;;;;;70.05;45.50;;;16.40;99.90;;;;;;6280525;22;20084;-89
2023/06/22 03:47:27;;;;;;;62.90;44.65;;;16.30;99.90;;;;;;6279915;22;20099;-89
2023/06/22 03:53:50;;;;;;;66.03;44.90;;;16.60;99.90;;;;;;6307005;22;20065;-89
2023/06/22 04:05:25;;;;;;;67.60;46.60;;;16.60;99.90;;;;;;6319090;22;20432;-89
2023/06/22 04:07:50;;;;;;;64.15;44.50;;;16.60;99.90;;;;;;6246177;22;20497;-89
2023/06/22 04:10:22;;;;;;;69.85;46.28;;;16.60;99.90;;;;;;6276113;22;20012;-88
2023/06/22 04:13:07;;;;;;;68.88;44.17;;;16.60;99.90;;;;;;6276451;22;20094;-89
2023/06/22 04:15:47;;;;;;;65.38;44.28;;;16.70;99.90;;;;;;6251739;22;20011;-89
2023/06/22 04:18:13;;;;;;;62.13;42.97;;;16.30;99.90;;;;;;6251762;22;20015;-89
2023/06/22 04:20:42;;;;;;;69.35;45.38;;;16.60;99.90;;;;;;6275909;22;20115;-88
2023/06/22 04:23:09;;;;;;;64.32;43.80;;;16.60;99.90;;;;;;6248366;22;20054;-89
2023/06/22 04:25:39;;;;;;;63.88;43.33;;;17.10;99.90;;;;;;6276757;22;20051;-89
2023/06/22 04:28:13;;;;;;;70.47;45.55;;;16.70;99.90;;;;;;6275583;22;20016;-89
2023/06/22 04:30:48;;;;;;;65.18;42.95;;;16.70;99.90;;;;;;6275927;22;20023;-89
2023/06/22 04:33:14;;;;;;;66.72;44.85;;;16.70;99.90;;;;;;6276231;22;20020;-89
2023/06/22 04:35:45;;;;;;;70.95;45.28;;;16.80;99.90;;;;;;6248940;22;20103;-88
2023/06/22 04:38:14;;;;;;;64.97;44.33;;;16.70;99.90;;;;;;6276011;22;20020;-88
2023/06/22 04:40:40;;;;;;;68.22;45.72;;;16.70;99.90;;;;;;6248933;22;20455;-89
2023/06/22 04:43:24;;;;;;;58.42;41.42;;;16.80;99.90;;;;;;6290719;22;20108;-88
2023/06/22 04:45:53;;;;;;;60.17;42.00;;;16.80;99.90;;;;;;6249391;22;20018;-89
2023/06/22 04:48:21;;;;;;;59.17;41.50;;;16.80;99.90;;;;;;6253037;22;20325;-90
2023/06/22 04:51:08;;;;;;;59.00;42.08;;;17.10;99.90;;;;;;6248362;22;20634;-90
2023/06/22 04:53:36;;;;;;;59.33;41.00;;;16.90;99.90;;;;;;6274575;22;20458;-89
2023/06/22 04:56:24;;;;;;;57.30;40.35;;;16.90;99.90;;;;;;6277970;22;20339;-92
2023/06/22 04:58:51;;;;;;;59.45;39.42;;;16.90;99.90;;;;;;6252063;22;20023;-92
2023/06/22 05:01:17;;;;;;;55.80;39.60;;;17.00;99.90;;;;;;6249470;22;20024;-92
2023/06/22 05:03:46;;;;;;;55.53;39.15;;;17.00;99.90;;;;;;6307875;22;20015;-92
2023/06/22 05:06:24;;;;;;;56.28;38.47;;;17.10;99.90;;;;;;6286666;22;20038;-90
2023/06/22 05:09:15;;;;;;;51.95;37.78;;;17.10;99.90;;;;;;6282245;22;20016;-92
2023/06/22 05:11:43;;;;;;;55.00;37.33;;;17.10;99.90;;;;;;6283890;22;20015;-93
2023/06/22 05:14:15;;;;;;;52.30;36.72;;;17.20;99.90;;;;;;6283061;22;20025;-93
2023/06/22 05:16:48;;;;;;;48.42;35.85;;;17.60;99.90;;;;;;6276539;22;20012;-91
2023/06/22 05:19:20;;;;;;;50.75;35.75;;;17.30;99.90;;;;;;6291694;22;20031;-91
2023/06/22 05:22:12;;;;;;;47.78;35.33;;;17.40;99.90;;;;;;6317078;22;20012;-91
2023/06/22 05:32:47;;;;;;;45.53;33.05;;;17.30;99.90;;;;;;6308321;22;20331;-90
2023/06/22 05:35:22;;;;;;;44.28;31.55;;;17.60;99.90;;;;;;6282212;22;20020;-91
2023/06/22 05:42:11;;;;;;;40.70;31.45;;;17.90;99.90;;;;;;6309537;22;20019;-93
2023/06/22 05:52:00;;;;;;;41.70;30.05;;;18.10;99.90;;;;;;6308575;22;20033;-90
2023/06/22 05:54:28;;;;;;;40.28;30.60;;;18.20;99.90;;;;;;6308224;22;20609;-90
2023/06/22 06:08:51;;;;;;;37.15;29.85;;;18.80;99.90;;;;;;6277078;22;20042;-89
2023/06/22 06:11:23;;;;;;;39.65;28.20;;;18.90;99.90;;;;;;6249963;22;20028;-91
2023/06/22 06:14:43;;;;;;;34.50;27.85;;;18.90;99.90;;;;;;6277064;22;20019;-89
2023/06/22 06:17:23;;;;;;;37.95;28.45;;;18.70;99.90;;;;;;6274510;22;20402;-89
2023/06/22 06:20:43;;;;;;;37.13;26.73;;;19.00;99.90;;;;;;6181486;23;20031;-89
2023/06/22 06:23:30;;;;;;;34.85;26.23;;;18.90;99.90;;;;;;6163666;23;20052;-89
2023/06/22 06:26:06;;;;;;;34.10;25.92;;;18.60;99.90;;;;;;6283060;22;20060;-89
2023/06/22 06:28:47;;;;;;;34.10;26.10;;;19.10;99.90;;;;;;6280178;22;20019;-89
2023/06/22 06:31:28;;;;;;;34.28;24.90;;;19.30;99.90;;;;;;6285956;22;20116;-89
2023/06/22 06:34:15;;;;;;;35.05;25.25;;;19.40;99.90;;;;;;6287167;22;20010;-88
2023/06/22 06:37:01;;;;;;;31.55;24.67;;;19.50;99.90;;;;;;6321448;22;20019;-89
2023/06/22 06:39:45;;;;;;;30.30;24.20;;;19.70;99.90;;;;;;6316577;22;20454;-88
2023/06/22 06:42:24;;;;;;;;;;;19.80;99.90;;;;;;6280693;22;20427;-89
2023/06/22 06:47:27;;;;;;;28.77;22.17;;;20.30;99.90;;;;;;6306409;22;20030;-88
2023/06/22 06:50:09;;;;;;;26.67;21.90;;;20.30;99.90;;;;;;6307197;22;20012;-88
2023/06/22 06:52:59;;;;;;;26.92;20.67;;;20.30;99.90;;;;;;6263841;22;20095;-91
2023/06/22 06:55:35;;;;;;;28.75;21.92;;;20.40;99.90;;;;;;6253488;22;20030;-93
2023/06/22 06:58:28;;;;;;;28.50;22.17;;;20.40;99.90;;;;;;6272592;22;20016;-92
2023/06/22 07:03:58;;;;;;;27.45;21.23;;;20.40;99.90;;;;;;6305230;22;20054;-91
2023/06/22 07:07:27;;;;;;;26.25;21.42;;;20.40;99.90;;;;;;6309929;22;20042;-88
2023/06/22 07:11:00;;;;;;;25.83;20.27;;;20.40;99.90;;;;;;6282553;22;20026;-92
2023/06/22 07:13:30;;;;;;;27.63;20.55;;;20.40;99.90;;;;;;6299923;22;20025;-92
2023/06/22 07:16:04;;;;;;;26.27;20.08;;;20.50;99.90;;;;;;6285405;22;20377;-93
2023/06/22 07:18:47;;;;;;;27.48;20.02;;;20.90;99.90;;;;;;6282536;22;20019;-92
2023/06/22 07:21:52;;;;;;;24.60;18.95;;;21.20;99.90;;;;;;6277163;22;20039;-91
2023/06/22 07:24:37;;;;;;;22.27;17.10;;;21.30;99.90;;;;;;6303970;22;20075;-92
2023/06/22 07:27:11;;;;;;;23.75;18.45;;;21.50;99.90;;;;;;6289416;22;20069;-91
2023/06/22 07:41:47;;;;;;;19.80;15.40;;;22.00;99.90;;;;;;6277604;22;20019;-88
2023/06/22 07:47:28;;;;;;;19.55;13.07;;;22.30;99.90;;;;;;6290235;22;20030;-87
2023/06/22 07:51:00;;;;;;;16.27;11.55;;;22.30;99.90;;;;;;6289846;22;20023;-86
2023/06/22 07:54:29;;;;;;;17.65;12.32;;;22.30;99.90;;;;;;6281329;22;20015;-87
2023/06/22 07:56:57;;;;;;;17.15;11.57;;;22.30;99.90;;;;;;6308130;22;20072;-86
2023/06/22 07:59:29;;;;;;;17.33;11.45;;;22.40;99.90;;;;;;6307464;22;20015;-89
2023/06/22 08:02:03;;;;;;;16.90;12.07;;;22.40;99.90;;;;;;6308268;22;20012;-88
2023/06/22 08:04:41;;;;;;;15.70;10.63;;;22.60;99.90;;;;;;6286249;22;20061;-89
2023/06/22 08:14:09;;;;;;;18.23;12.77;;;22.80;99.90;;;;;;6163878;23;20052;-91
2023/06/22 08:16:38;;;;;;;15.90;11.52;;;23.10;99.90;;;;;;6154854;23;20037;-90
2023/06/22 08:19:31;;;;;;;18.13;10.77;;;23.10;99.90;;;;;;6128396;23;20067;-91
2023/06/22 08:22:00;;;;;;;15.38;10.52;;;23.30;99.90;;;;;;6187624;22;20018;-91
2023/06/22 08:24:51;;;;;;;16.92;10.93;;;23.30;99.90;;;;;;6280014;22;20426;-92
2023/06/22 08:27:30;;;;;;;;;;;;;;;;;;;;;
2023/06/22 08:30:45;;;;;;;14.48;10.18;;;23.20;99.90;;;;;;6292420;22;20034;-92
2023/06/22 08:33:17;;;;;;;14.55;10.02;;;23.60;99.90;;;;;;6127736;23;20018;-91
2023/06/22 08:35:45;;;;;;;14.93;9.68;;;23.80;99.90;;;;;;6153458;23;20016;-91
2023/06/22 08:38:18;;;;;;;14.77;9.85;;;24.00;99.90;;;;;;6128175;23;20103;-92
2023/06/22 08:40:47;;;;;;;14.73;10.00;;;24.10;99.90;;;;;;6128953;23;20495;-91
2023/06/22 09:01:34;;;;;;;14.85;9.10;;;24.70;99.90;;;;;;6294454;22;20027;-92
2023/06/22 09:04:22;;;;;;;15.43;9.63;;;24.70;99.90;;;;;;6280252;22;20007;-94
2023/06/22 09:07:04;;;;;;;16.90;9.32;;;24.80;99.90;;;;;;6324068;22;20106;-91
2023/06/22 09:30:10;;;;;;;14.00;8.90;;;25.80;99.90;;;;;;6292936;22;20101;-94
2023/06/22 09:32:36;;;;;;;13.73;8.63;;;25.90;99.90;;;;;;6234996;22;20451;-88
2023/06/22 09:35:14;;;;;;;12.98;8.55;;;25.90;99.90;;;;;;6279273;22;20023;-88
2023/06/22 09:37:40;;;;;;;13.52;8.38;;;26.00;99.90;;;;;;6278128;22;20405;-87
2023/06/22 09:55:48;;;;;;;13.02;8.32;;;26.60;99.90;;;;;;6306890;22;20046;-90
2023/06/22 10:18:46;;;;;;;12.68;7.18;;;27.00;99.90;;;;;;6307846;22;20023;-89
2023/06/22 10:21:18;;;;;;;10.98;6.60;;;27.20;99.90;;;;;;6320687;22;20065;-89
2023/06/22 10:24:18;;;;;;;12.18;7.10;;;27.50;99.90;;;;;;6312714;22;20018;-90
2023/06/22 10:27:51;;;;;;;13.93;8.02;;;27.70;99.90;;;;;;6281768;22;20023;-90
2023/06/22 10:30:38;;;;;;;12.15;8.07;;;27.60;99.10;;;;;;6064548;23;20021;-88
2023/06/22 10:39:02;;;;;;;11.93;7.50;;;27.60;99.10;;;;;;6279504;22;20042;-89
2023/06/22 10:41:48;;;;;;;12.93;7.20;;;27.70;99.90;;;;;;6277028;22;20046;-91
2023/06/22 10:48:56;;;;;;;12.93;8.20;;;28.20;99.00;;;;;;6306483;22;20026;-88
2023/06/22 10:52:29;;;;;;;13.55;7.70;;;28.20;98.40;;;;;;6234884;22;20041;-90
2023/06/22 10:58:36;;;;;;;14.15;7.95;;;28.40;97.90;;;;;;6307786;22;20015;-91
2023/06/22 11:05:15;;;;;;;11.50;7.30;;;28.50;98.50;;;;;;6288324;22;20022;-94
2023/06/22 11:07:44;;;;;;;12.10;6.93;;;28.70;97.80;;;;;;6248028;22;20019;-92
2023/06/22 11:10:16;;;;;;;14.18;6.90;;;28.70;97.10;;;;;;6273421;22;20046;-93
2023/06/22 11:12:45;;;;;;;11.43;6.80;;;29.00;97.40;;;;;;6191404;23;20026;-92
2023/06/22 11:20:40;;;;;;;9.68;5.68;;;29.00;97.70;;;;;;6299169;22;20050;-93
2023/06/22 11:35:20;;;;;;;11.63;5.82;;;28.60;97.40;;;;;;6173898;23;20534;-93
2023/06/22 11:38:42;;;;;;;;;;;;;;;;;;;;;
2023/06/22 11:44:44;;;;;;;10.52;5.45;;;28.10;97.90;;;;;;6295892;22;20024;-96
2023/06/22 11:51:09;;;;;;;10.15;5.05;;;28.10;97.50;;;;;;6310385;22;20018;-94
2023/06/22 11:53:35;;;;;;;10.93;5.60;;;28.00;97.40;;;;;;6275544;22;20039;-95
2023/06/22 12:35:45;;;;;;;10.63;4.88;;;27.70;96.70;;;;;;6296388;22;20027;-90
2023/06/22 12:40:47;;;;;;;10.00;5.13;;;27.60;96.50;;;;;;6294282;22;20443;-88
2023/06/22 12:43:21;;;;;;;9.65;5.18;;;27.40;96.20;;;;;;6305678;22;20075;-90
2023/06/22 13:11:52;;;;;;;10.25;4.95;;;26.00;97.80;;;;;;6307758;22;20023;-92
2023/06/22 13:17:08;;;;;;;9.27;4.53;;;26.00;97.40;;;;;;6306859;22;20077;-92
2023/06/22 13:19:46;;;;;;;11.65;4.90;;;25.90;97.60;;;;;;6280892;22;20434;-91
2023/06/22 13:23:16;;;;;;;10.05;5.43;;;25.80;97.70;;;;;;6279261;22;20057;-91
2023/06/22 13:25:47;;;;;;;10.55;5.07;;;25.80;97.70;;;;;;6229536;22;20015;-88
2023/06/22 13:35:21;;;;;;;11.18;5.10;;;26.00;97.90;;;;;;6279884;22;20019;-92
2023/06/22 13:38:51;;;;;;;;;;;;;;;;;;;;;
2023/06/22 13:44:53;;;;;;;10.48;4.88;;;25.90;98.50;;;;;;6267320;22;20053;-91
2023/06/22 14:12:45;;;;;;;9.27;4.60;;;25.70;99.60;;;;;;6303715;22;20058;-92
2023/06/22 14:15:23;;;;;;;10.93;4.95;;;25.90;99.90;;;;;;6310538;22;20058;-92
2023/06/22 14:17:52;;;;;;;10.52;5.03;;;25.90;99.70;;;;;;6282669;22;20454;-93
2023/06/22 14:20:18;;;;;;;11.45;5.40;;;25.90;99.90;;;;;;6310368;22;20451;-92
2023/06/22 14:22:44;;;;;;;11.32;5.15;;;25.80;99.90;;;;;;6282532;22;20015;-90
2023/06/22 14:25:09;;;;;;;9.45;5.32;;;25.50;99.90;;;;;;6289705;22;20429;-92
2023/06/22 14:28:08;;;;;;;12.50;5.65;;;25.80;99.90;;;;;;6310476;22;20386;-91
2023/06/22 14:33:47;;;;;;;10.48;5.68;;;25.70;99.90;;;;;;6186654;23;20021;-90
2023/06/22 14:36:36;;;;;;;9.75;5.35;;;25.80;99.90;;;;;;6159315;23;20021;-90
2023/06/22 14:39:08;;;;;;;14.20;6.38;;;25.70;99.90;;;;;;6253811;22;20022;-91
2023/06/22 14:42:08;;;;;;;12.73;6.32;;;25.70;99.90;;;;;;6309436;22;20070;-90
2023/06/22 14:50:39;;;;;;;10.80;6.45;;;25.60;99.90;;;;;;6222517;23;20441;-89
2023/06/22 14:53:09;;;;;;;10.85;7.07;;;25.60;99.90;;;;;;6216737;23;20047;-89
2023/06/22 14:55:47;;;;;;;11.73;7.10;;;25.40;99.90;;;;;;6189139;23;20417;-89
2023/06/22 14:58:16;;;;;;;11.65;6.75;;;25.30;99.90;;;;;;6215363;23;20059;-90
2023/06/22 15:00:47;;;;;;;11.15;6.70;;;25.20;99.90;;;;;;6189195;23;20479;-92
2023/06/22 15:03:25;;;;;;;12.95;7.93;;;25.10;99.90;;;;;;6216378;23;20089;-91
2023/06/22 15:12:55;;;;;;;14.85;8.45;;;24.80;99.90;;;;;;6216828;23;20059;-90
2023/06/22 15:15:24;;;;;;;13.70;7.68;;;24.60;99.90;;;;;;6193649;23;20058;-88
2023/06/22 15:17:52;;;;;;;13.55;7.95;;;24.50;99.90;;;;;;6215465;23;20024;-92
2023/06/22 15:25:31;;;;;;;16.02;11.57;;;24.20;99.90;;;;;;6325253;22;20008;-91
2023/06/22 15:28:16;;;;;;;16.00;11.63;;;24.00;99.90;;;;;;6286970;22;20363;-92
2023/06/22 15:31:21;;;;;;;14.82;10.85;;;23.80;99.90;;;;;;6281085;22;20022;-93
2023/06/22 15:43:49;;;;;;;15.35;10.55;;;22.80;99.90;;;;;;6307418;22;20102;-89
2023/06/22 15:46:42;;;;;;;14.23;10.13;;;22.70;99.90;;;;;;6280543;22;20068;-88
2023/06/22 15:49:23;;;;;;;16.63;10.25;;;22.40;99.90;;;;;;6173083;23;20021;-90
2023/06/22 15:51:49;;;;;;;17.42;10.50;;;22.30;99.90;;;;;;6259479;22;20045;-90
2023/06/22 15:54:15;;;;;;;16.17;10.32;;;22.20;99.90;;;;;;6280241;22;20019;-90
2023/06/22 15:56:43;;;;;;;15.27;9.73;;;22.00;99.90;;;;;;6278387;22;20015;-91
2023/06/22 15:59:13;;;;;;;15.23;9.68;;;22.00;99.90;;;;;;6285934;22;20343;-90
2023/06/22 16:05:26;;;;;;;14.68;9.38;;;21.70;99.90;;;;;;6315734;22;20014;-92
2023/06/22 16:14:41;;;;;;;14.15;9.13;;;21.40;99.90;;;;;;6307360;22;20339;-89
2023/06/22 16:17:07;;;;;;;16.23;9.38;;;21.40;99.90;;;;;;6279795;22;20074;-90
2023/06/22 16:22:27;;;;;;;13.98;8.98;;;21.30;99.90;;;;;;6303428;22;20477;-89
2023/06/22 16:24:55;;;;;;;14.88;8.85;;;21.40;99.90;;;;;;6279644;22;20086;-91
2023/06/22 16:27:46;;;;;;;15.40;8.00;;;21.20;99.90;;;;;;6261716;22;20029;-90
2023/06/22 16:30:17;;;;;;;12.93;8.40;;;21.10;99.90;;;;;;6282006;22;20039;-90
2023/06/22 16:33:12;;;;;;;15.13;8.52;;;21.10;99.90;;;;;;6280949;22;20390;-90
2023/06/22 16:35:41;;;;;;;12.88;7.82;;;21.00;99.90;;;;;;6277422;22;20046;-91
2023/06/22 16:38:25;;;;;;;12.98;8.48;;;21.00;99.90;;;;;;6308419;22;20030;-92
2023/06/22 16:40:54;;;;;;;12.82;7.13;;;21.00;99.90;;;;;;6314210;22;20019;-89
2023/06/22 16:43:41;;;;;;;12.52;7.28;;;20.90;99.90;;;;;;6285299;22;20187;-90
2023/06/22 16:46:07;;;;;;;11.35;6.72;;;21.10;99.90;;;;;;6306536;22;20378;-90
2023/06/22 16:49:03;;;;;;;12.82;6.75;;;20.80;99.90;;;;;;6280071;22;20011;-90
2023/06/22 17:29:47;;;;;;;11.25;5.30;;;19.10;99.90;;;;;;6281001;22;20023;-86
2023/06/22 17:32:47;;;;;;;11.00;5.72;;;19.00;99.90;;;;;;6288230;22;20019;-86
2023/06/22 17:38:41;;;;;;;10.57;5.40;;;19.00;99.90;;;;;;6305255;22;20023;-86
2023/06/22 17:41:46;;;;;;;10.05;4.78;;;18.80;99.90;;;;;;6306713;22;20084;-86
2023/06/22 17:57:20;;;;;;;9.50;3.72;;;18.60;99.90;;;;;;6312371;22;20038;-87
2023/06/22 17:59:50;;;;;;;8.48;3.75;;;18.90;99.90;;;;;;6280790;22;20027;-88
2023/06/22 18:09:59;;;;;;;10.82;3.50;;;18.30;99.90;;;;;;6305258;22;20141;-86
2023/06/22 18:13:17;;;;;;;9.30;3.53;;;18.20;99.90;;;;;;6279186;22;20412;-86
2023/06/22 18:15:46;;;;;;;9.25;3.60;;;18.10;99.90;;;;;;6306673;22;20019;-86
2023/06/22 23:26:43;;;;;;;24.35;13.90;;;16.10;99.90;;;;;;6307195;22;20330;-88
